sensor_id;sensor_type;location;lat;lon;timestamp;P1;durP1;ratioP1;P2;durP2;ratioP2
19207;SDS011;9737;59.466;18.036;2023-12-04T00:00:04;10.97;;;6.40;;
19207;SDS011;9737;59.466;18.036;2023-12-04T00:02:35;8.70;;;6.13;;
19207;SDS011;9737;59.466;18.036;2023-12-04T00:05:05;9.83;;;6.53;;
19207;SDS011;9737;59.466;18.036;2023-12-04T00:07:34;10.93;;;6.53;;
19207;SDS011;9737;59.466;18.036;2023-12-04T00:10:02;10.37;;;6.47;;
19207;SDS011;9737;59.466;18.036;2023-12-04T00:12:31;10.97;;;6.70;;
19207;SDS011;9737;59.466;18.036;2023-12-04T00:14:59;9.20;;;6.67;;
19207;SDS011;9737;59.466;18.036;2023-12-04T00:17:27;10.70;;;6.43;;
19207;SDS011;9737;59.466;18.036;2023-12-04T00:19:57;7.50;;;5.60;;
19207;SDS011;9737;59.466;18.036;2023-12-04T00:22:26;8.07;;;5.87;;
19207;SDS011;9737;59.466;18.036;2023-12-04T00:24:55;10.13;;;6.10;;
19207;SDS011;9737;59.466;18.036;2023-12-04T00:27:23;9.00;;;5.87;;
19207;SDS011;9737;59.466;18.036;2023-12-04T00:29:53;8.20;;;5.83;;
19207;SDS011;9737;59.466;18.036;2023-12-04T00:32:21;8.00;;;6.07;;
19207;SDS011;9737;59.466;18.036;2023-12-04T00:34:49;10.27;;;6.20;;
19207;SDS011;9737;59.466;18.036;2023-12-04T00:37:19;8.57;;;6.13;;
19207;SDS011;9737;59.466;18.036;2023-12-04T00:39:48;9.17;;;6.30;;
19207;SDS011;9737;59.466;18.036;2023-12-04T00:42:16;9.10;;;5.90;;
19207;SDS011;9737;59.466;18.036;2023-12-04T00:44:44;8.97;;;5.67;;
19207;SDS011;9737;59.466;18.036;2023-12-04T00:47:12;7.90;;;6.10;;
19207;SDS011;9737;59.466;18.036;2023-12-04T00:49:40;8.93;;;6.00;;
19207;SDS011;9737;59.466;18.036;2023-12-04T00:52:07;7.77;;;5.80;;
19207;SDS011;9737;59.466;18.036;2023-12-04T00:54:39;8.33;;;5.87;;
19207;SDS011;9737;59.466;18.036;2023-12-04T00:57:08;7.67;;;5.50;;
19207;SDS011;9737;59.466;18.036;2023-12-04T00:59:36;8.37;;;5.53;;
19207;SDS011;9737;59.466;18.036;2023-12-04T01:02:04;9.97;;;6.07;;
19207;SDS011;9737;59.466;18.036;2023-12-04T01:04:34;10.30;;;6.10;;
19207;SDS011;9737;59.466;18.036;2023-12-04T01:07:02;8.10;;;6.20;;
19207;SDS011;9737;59.466;18.036;2023-12-04T01:09:30;8.93;;;6.33;;
19207;SDS011;9737;59.466;18.036;2023-12-04T01:11:59;8.60;;;5.97;;
19207;SDS011;9737;59.466;18.036;2023-12-04T01:14:28;9.60;;;6.23;;
19207;SDS011;9737;59.466;18.036;2023-12-04T01:16:55;8.17;;;5.60;;
19207;SDS011;9737;59.466;18.036;2023-12-04T01:19:23;8.80;;;5.63;;
19207;SDS011;9737;59.466;18.036;2023-12-04T01:21:51;7.93;;;5.80;;
19207;SDS011;9737;59.466;18.036;2023-12-04T01:24:19;7.90;;;5.53;;
19207;SDS011;9737;59.466;18.036;2023-12-04T01:26:47;9.27;;;5.67;;
19207;SDS011;9737;59.466;18.036;2023-12-04T01:29:17;9.03;;;5.80;;
19207;SDS011;9737;59.466;18.036;2023-12-04T01:31:45;8.77;;;6.03;;
19207;SDS011;9737;59.466;18.036;2023-12-04T01:34:13;8.67;;;6.40;;
19207;SDS011;9737;59.466;18.036;2023-12-04T01:36:41;8.10;;;5.87;;
19207;SDS011;9737;59.466;18.036;2023-12-04T01:39:09;9.13;;;6.37;;
19207;SDS011;9737;59.466;18.036;2023-12-04T01:41:37;10.30;;;6.03;;
19207;SDS011;9737;59.466;18.036;2023-12-04T01:44:06;7.87;;;5.83;;
19207;SDS011;9737;59.466;18.036;2023-12-04T01:46:36;8.57;;;5.80;;
19207;SDS011;9737;59.466;18.036;2023-12-04T01:49:04;8.57;;;6.10;;
19207;SDS011;9737;59.466;18.036;2023-12-04T01:51:32;8.90;;;5.87;;
19207;SDS011;9737;59.466;18.036;2023-12-04T01:54:02;9.37;;;6.33;;
19207;SDS011;9737;59.466;18.036;2023-12-04T01:56:31;10.10;;;6.30;;
19207;SDS011;9737;59.466;18.036;2023-12-04T01:59:00;8.27;;;5.77;;
19207;SDS011;9737;59.466;18.036;2023-12-04T02:01:27;8.07;;;6.33;;
19207;SDS011;9737;59.466;18.036;2023-12-04T02:03:57;8.00;;;6.27;;
19207;SDS011;9737;59.466;18.036;2023-12-04T02:06:28;8.57;;;6.40;;
19207;SDS011;9737;59.466;18.036;2023-12-04T02:08:56;11.77;;;6.57;;
19207;SDS011;9737;59.466;18.036;2023-12-04T02:11:24;11.57;;;6.47;;
19207;SDS011;9737;59.466;18.036;2023-12-04T02:13:52;8.73;;;6.60;;
19207;SDS011;9737;59.466;18.036;2023-12-04T02:16:20;9.17;;;6.67;;
19207;SDS011;9737;59.466;18.036;2023-12-04T02:18:54;9.73;;;6.33;;
19207;SDS011;9737;59.466;18.036;2023-12-04T02:21:23;9.87;;;6.70;;
19207;SDS011;9737;59.466;18.036;2023-12-04T02:23:52;11.77;;;7.13;;
19207;SDS011;9737;59.466;18.036;2023-12-04T02:26:22;10.00;;;6.53;;
19207;SDS011;9737;59.466;18.036;2023-12-04T02:28:54;11.10;;;6.90;;
19207;SDS011;9737;59.466;18.036;2023-12-04T02:31:28;9.57;;;6.77;;
19207;SDS011;9737;59.466;18.036;2023-12-04T02:33:58;11.10;;;7.83;;
19207;SDS011;9737;59.466;18.036;2023-12-04T02:36:29;12.27;;;7.43;;
19207;SDS011;9737;59.466;18.036;2023-12-04T02:38:59;10.97;;;7.40;;
19207;SDS011;9737;59.466;18.036;2023-12-04T02:41:29;11.07;;;7.73;;
19207;SDS011;9737;59.466;18.036;2023-12-04T02:43:56;10.67;;;6.90;;
19207;SDS011;9737;59.466;18.036;2023-12-04T02:46:24;14.27;;;8.60;;
19207;SDS011;9737;59.466;18.036;2023-12-04T02:48:52;11.30;;;7.70;;
19207;SDS011;9737;59.466;18.036;2023-12-04T02:51:20;12.33;;;7.43;;
19207;SDS011;9737;59.466;18.036;2023-12-04T02:53:49;11.50;;;7.60;;
19207;SDS011;9737;59.466;18.036;2023-12-04T02:56:18;10.37;;;7.87;;
19207;SDS011;9737;59.466;18.036;2023-12-04T02:58:46;13.10;;;7.57;;
19207;SDS011;9737;59.466;18.036;2023-12-04T03:01:14;11.07;;;7.17;;
19207;SDS011;9737;59.466;18.036;2023-12-04T03:03:42;12.43;;;7.70;;
19207;SDS011;9737;59.466;18.036;2023-12-04T03:06:10;12.27;;;8.10;;
19207;SDS011;9737;59.466;18.036;2023-12-04T03:08:38;11.33;;;7.87;;
19207;SDS011;9737;59.466;18.036;2023-12-04T03:11:06;12.37;;;8.40;;
19207;SDS011;9737;59.466;18.036;2023-12-04T03:13:35;10.23;;;6.83;;
19207;SDS011;9737;59.466;18.036;2023-12-04T03:16:03;11.03;;;7.40;;
19207;SDS011;9737;59.466;18.036;2023-12-04T03:18:31;11.97;;;7.43;;
19207;SDS011;9737;59.466;18.036;2023-12-04T03:20:59;11.63;;;7.63;;
19207;SDS011;9737;59.466;18.036;2023-12-04T03:23:29;13.37;;;8.33;;
19207;SDS011;9737;59.466;18.036;2023-12-04T03:25:57;10.50;;;6.87;;
19207;SDS011;9737;59.466;18.036;2023-12-04T03:28:26;11.10;;;7.57;;
19207;SDS011;9737;59.466;18.036;2023-12-04T03:30:55;10.10;;;6.70;;
19207;SDS011;9737;59.466;18.036;2023-12-04T03:33:23;11.63;;;7.97;;
19207;SDS011;9737;59.466;18.036;2023-12-04T03:35:51;13.33;;;9.17;;
19207;SDS011;9737;59.466;18.036;2023-12-04T03:38:19;12.67;;;7.40;;
19207;SDS011;9737;59.466;18.036;2023-12-04T03:40:47;10.93;;;7.90;;
19207;SDS011;9737;59.466;18.036;2023-12-04T03:43:15;12.77;;;8.47;;
19207;SDS011;9737;59.466;18.036;2023-12-04T03:45:43;10.27;;;7.37;;
19207;SDS011;9737;59.466;18.036;2023-12-04T03:48:13;11.13;;;7.37;;
19207;SDS011;9737;59.466;18.036;2023-12-04T03:50:41;9.80;;;7.00;;
19207;SDS011;9737;59.466;18.036;2023-12-04T03:53:09;10.37;;;6.90;;
19207;SDS011;9737;59.466;18.036;2023-12-04T03:55:36;11.00;;;7.07;;
19207;SDS011;9737;59.466;18.036;2023-12-04T03:58:04;10.97;;;6.83;;
19207;SDS011;9737;59.466;18.036;2023-12-04T04:00:33;10.23;;;7.13;;
19207;SDS011;9737;59.466;18.036;2023-12-04T04:03:02;11.83;;;7.40;;
19207;SDS011;9737;59.466;18.036;2023-12-04T04:05:31;13.53;;;7.60;;
19207;SDS011;9737;59.466;18.036;2023-12-04T04:08:01;11.73;;;7.27;;
19207;SDS011;9737;59.466;18.036;2023-12-04T04:10:29;12.47;;;7.93;;
19207;SDS011;9737;59.466;18.036;2023-12-04T04:12:56;13.50;;;6.93;;
19207;SDS011;9737;59.466;18.036;2023-12-04T04:15:25;10.23;;;6.83;;
19207;SDS011;9737;59.466;18.036;2023-12-04T04:17:53;10.87;;;6.93;;
19207;SDS011;9737;59.466;18.036;2023-12-04T04:20:21;12.17;;;7.80;;
19207;SDS011;9737;59.466;18.036;2023-12-04T04:22:51;10.07;;;6.80;;
19207;SDS011;9737;59.466;18.036;2023-12-04T04:25:20;9.90;;;6.87;;
19207;SDS011;9737;59.466;18.036;2023-12-04T04:27:50;9.10;;;6.37;;
19207;SDS011;9737;59.466;18.036;2023-12-04T04:30:17;10.47;;;6.73;;
19207;SDS011;9737;59.466;18.036;2023-12-04T04:32:45;10.50;;;6.97;;
19207;SDS011;9737;59.466;18.036;2023-12-04T04:35:14;12.57;;;6.90;;
19207;SDS011;9737;59.466;18.036;2023-12-04T04:37:42;10.87;;;6.70;;
19207;SDS011;9737;59.466;18.036;2023-12-04T04:40:14;11.00;;;6.70;;
19207;SDS011;9737;59.466;18.036;2023-12-04T04:42:42;10.73;;;7.17;;
19207;SDS011;9737;59.466;18.036;2023-12-04T04:45:10;13.33;;;6.97;;
19207;SDS011;9737;59.466;18.036;2023-12-04T04:47:38;12.43;;;6.93;;
19207;SDS011;9737;59.466;18.036;2023-12-04T04:50:06;10.17;;;6.60;;
19207;SDS011;9737;59.466;18.036;2023-12-04T04:52:34;10.00;;;6.77;;
19207;SDS011;9737;59.466;18.036;2023-12-04T04:55:04;11.77;;;7.37;;
19207;SDS011;9737;59.466;18.036;2023-12-04T04:57:34;10.90;;;6.97;;
19207;SDS011;9737;59.466;18.036;2023-12-04T05:00:03;11.20;;;6.80;;
19207;SDS011;9737;59.466;18.036;2023-12-04T05:02:32;10.77;;;6.60;;
19207;SDS011;9737;59.466;18.036;2023-12-04T05:05:02;12.37;;;6.80;;
19207;SDS011;9737;59.466;18.036;2023-12-04T05:07:31;10.37;;;6.67;;
19207;SDS011;9737;59.466;18.036;2023-12-04T05:09:58;11.37;;;7.20;;
19207;SDS011;9737;59.466;18.036;2023-12-04T05:12:26;9.00;;;6.47;;
19207;SDS011;9737;59.466;18.036;2023-12-04T05:14:56;10.43;;;6.57;;
19207;SDS011;9737;59.466;18.036;2023-12-04T05:17:24;11.00;;;6.90;;
19207;SDS011;9737;59.466;18.036;2023-12-04T05:19:51;8.97;;;6.20;;
19207;SDS011;9737;59.466;18.036;2023-12-04T05:22:19;10.80;;;6.80;;
19207;SDS011;9737;59.466;18.036;2023-12-04T05:24:47;13.00;;;6.93;;
19207;SDS011;9737;59.466;18.036;2023-12-04T05:27:31;10.57;;;6.47;;
19207;SDS011;9737;59.466;18.036;2023-12-04T05:30:00;11.63;;;6.53;;
19207;SDS011;9737;59.466;18.036;2023-12-04T05:32:28;10.60;;;6.33;;
19207;SDS011;9737;59.466;18.036;2023-12-04T05:34:56;9.93;;;6.70;;
19207;SDS011;9737;59.466;18.036;2023-12-04T05:37:24;10.13;;;6.87;;
19207;SDS011;9737;59.466;18.036;2023-12-04T05:39:52;10.03;;;6.63;;
19207;SDS011;9737;59.466;18.036;2023-12-04T05:42:20;9.97;;;6.87;;
19207;SDS011;9737;59.466;18.036;2023-12-04T05:44:48;8.93;;;6.20;;
19207;SDS011;9737;59.466;18.036;2023-12-04T05:47:17;9.37;;;6.57;;
19207;SDS011;9737;59.466;18.036;2023-12-04T05:49:45;10.13;;;6.83;;
19207;SDS011;9737;59.466;18.036;2023-12-04T05:52:13;10.13;;;6.07;;
19207;SDS011;9737;59.466;18.036;2023-12-04T05:54:41;11.40;;;6.33;;
19207;SDS011;9737;59.466;18.036;2023-12-04T05:57:09;10.93;;;6.97;;
19207;SDS011;9737;59.466;18.036;2023-12-04T05:59:37;10.13;;;6.47;;
19207;SDS011;9737;59.466;18.036;2023-12-04T06:02:05;9.70;;;6.40;;
19207;SDS011;9737;59.466;18.036;2023-12-04T06:04:34;9.57;;;6.30;;
19207;SDS011;9737;59.466;18.036;2023-12-04T06:07:02;9.67;;;6.20;;
19207;SDS011;9737;59.466;18.036;2023-12-04T06:09:31;9.50;;;6.20;;
19207;SDS011;9737;59.466;18.036;2023-12-04T06:11:58;8.07;;;5.67;;
19207;SDS011;9737;59.466;18.036;2023-12-04T06:14:34;10.33;;;6.40;;
19207;SDS011;9737;59.466;18.036;2023-12-04T06:17:02;9.57;;;5.87;;
19207;SDS011;9737;59.466;18.036;2023-12-04T06:19:32;13.83;;;6.87;;
19207;SDS011;9737;59.466;18.036;2023-12-04T06:22:02;8.17;;;5.57;;
19207;SDS011;9737;59.466;18.036;2023-12-04T06:24:30;9.87;;;6.17;;
19207;SDS011;9737;59.466;18.036;2023-12-04T06:26:59;8.93;;;6.37;;
19207;SDS011;9737;59.466;18.036;2023-12-04T06:29:27;9.90;;;6.50;;
19207;SDS011;9737;59.466;18.036;2023-12-04T06:31:56;10.07;;;6.47;;
19207;SDS011;9737;59.466;18.036;2023-12-04T06:34:24;8.83;;;5.97;;
19207;SDS011;9737;59.466;18.036;2023-12-04T06:36:52;10.60;;;6.63;;
19207;SDS011;9737;59.466;18.036;2023-12-04T06:39:24;12.50;;;6.70;;
19207;SDS011;9737;59.466;18.036;2023-12-04T06:41:54;10.70;;;6.40;;
19207;SDS011;9737;59.466;18.036;2023-12-04T06:44:23;11.83;;;6.30;;
19207;SDS011;9737;59.466;18.036;2023-12-04T06:46:51;11.30;;;6.97;;
19207;SDS011;9737;59.466;18.036;2023-12-04T06:49:20;8.90;;;6.07;;
19207;SDS011;9737;59.466;18.036;2023-12-04T06:51:49;12.63;;;6.20;;
19207;SDS011;9737;59.466;18.036;2023-12-04T06:54:17;10.10;;;6.40;;
19207;SDS011;9737;59.466;18.036;2023-12-04T06:56:46;10.60;;;6.90;;
19207;SDS011;9737;59.466;18.036;2023-12-04T06:59:14;10.00;;;6.30;;
19207;SDS011;9737;59.466;18.036;2023-12-04T07:01:42;9.20;;;6.67;;
19207;SDS011;9737;59.466;18.036;2023-12-04T07:04:10;10.00;;;6.20;;
19207;SDS011;9737;59.466;18.036;2023-12-04T07:06:38;10.00;;;6.73;;
19207;SDS011;9737;59.466;18.036;2023-12-04T07:09:07;11.13;;;6.80;;
19207;SDS011;9737;59.466;18.036;2023-12-04T07:11:35;13.13;;;6.67;;
19207;SDS011;9737;59.466;18.036;2023-12-04T07:14:04;13.60;;;6.90;;
19207;SDS011;9737;59.466;18.036;2023-12-04T07:16:38;11.80;;;6.57;;
19207;SDS011;9737;59.466;18.036;2023-12-04T07:19:06;10.93;;;6.40;;
19207;SDS011;9737;59.466;18.036;2023-12-04T07:21:34;11.23;;;6.47;;
19207;SDS011;9737;59.466;18.036;2023-12-04T07:24:02;9.10;;;6.37;;
19207;SDS011;9737;59.466;18.036;2023-12-04T07:26:31;10.77;;;7.17;;
19207;SDS011;9737;59.466;18.036;2023-12-04T07:29:01;11.90;;;6.17;;
19207;SDS011;9737;59.466;18.036;2023-12-04T07:31:31;11.13;;;6.63;;
19207;SDS011;9737;59.466;18.036;2023-12-04T07:33:59;12.17;;;6.83;;
19207;SDS011;9737;59.466;18.036;2023-12-04T07:36:28;16.30;;;9.33;;
19207;SDS011;9737;59.466;18.036;2023-12-04T07:38:57;12.23;;;7.20;;
19207;SDS011;9737;59.466;18.036;2023-12-04T07:41:24;9.47;;;6.60;;
19207;SDS011;9737;59.466;18.036;2023-12-04T07:43:53;10.33;;;6.23;;
19207;SDS011;9737;59.466;18.036;2023-12-04T07:46:22;10.10;;;6.00;;
19207;SDS011;9737;59.466;18.036;2023-12-04T07:48:51;10.60;;;6.83;;
19207;SDS011;9737;59.466;18.036;2023-12-04T07:51:21;11.00;;;6.60;;
19207;SDS011;9737;59.466;18.036;2023-12-04T07:53:49;9.83;;;6.10;;
19207;SDS011;9737;59.466;18.036;2023-12-04T07:56:17;10.43;;;5.97;;
19207;SDS011;9737;59.466;18.036;2023-12-04T07:58:45;10.07;;;6.00;;
19207;SDS011;9737;59.466;18.036;2023-12-04T08:01:13;10.40;;;6.50;;
19207;SDS011;9737;59.466;18.036;2023-12-04T08:03:41;9.43;;;5.83;;
19207;SDS011;9737;59.466;18.036;2023-12-04T08:06:11;10.20;;;6.23;;
19207;SDS011;9737;59.466;18.036;2023-12-04T08:08:38;12.40;;;6.40;;
19207;SDS011;9737;59.466;18.036;2023-12-04T08:11:06;14.70;;;6.27;;
19207;SDS011;9737;59.466;18.036;2023-12-04T08:13:37;10.10;;;6.20;;
19207;SDS011;9737;59.466;18.036;2023-12-04T08:16:12;12.63;;;7.07;;
19207;SDS011;9737;59.466;18.036;2023-12-04T08:18:40;10.97;;;6.63;;
19207;SDS011;9737;59.466;18.036;2023-12-04T08:21:08;10.20;;;6.60;;
19207;SDS011;9737;59.466;18.036;2023-12-04T08:23:37;14.63;;;6.63;;
19207;SDS011;9737;59.466;18.036;2023-12-04T08:26:06;11.17;;;6.30;;
19207;SDS011;9737;59.466;18.036;2023-12-04T08:28:34;12.17;;;5.70;;
19207;SDS011;9737;59.466;18.036;2023-12-04T08:31:03;9.33;;;5.80;;
19207;SDS011;9737;59.466;18.036;2023-12-04T08:33:34;8.93;;;6.37;;
19207;SDS011;9737;59.466;18.036;2023-12-04T08:36:02;10.27;;;6.07;;
19207;SDS011;9737;59.466;18.036;2023-12-04T08:38:31;10.43;;;6.00;;
19207;SDS011;9737;59.466;18.036;2023-12-04T08:41:00;10.87;;;5.70;;
19207;SDS011;9737;59.466;18.036;2023-12-04T08:43:28;9.93;;;5.57;;
19207;SDS011;9737;59.466;18.036;2023-12-04T08:45:56;9.63;;;5.60;;
19207;SDS011;9737;59.466;18.036;2023-12-04T08:48:25;9.67;;;6.00;;
19207;SDS011;9737;59.466;18.036;2023-12-04T08:50:52;7.77;;;5.37;;
19207;SDS011;9737;59.466;18.036;2023-12-04T08:53:20;8.57;;;5.93;;
19207;SDS011;9737;59.466;18.036;2023-12-04T08:55:48;8.13;;;5.77;;
19207;SDS011;9737;59.466;18.036;2023-12-04T08:58:19;8.83;;;5.70;;
19207;SDS011;9737;59.466;18.036;2023-12-04T09:00:47;8.53;;;5.70;;
19207;SDS011;9737;59.466;18.036;2023-12-04T09:03:15;7.70;;;5.40;;
19207;SDS011;9737;59.466;18.036;2023-12-04T09:05:51;7.57;;;5.00;;
19207;SDS011;9737;59.466;18.036;2023-12-04T09:08:22;10.40;;;5.03;;
19207;SDS011;9737;59.466;18.036;2023-12-04T09:11:03;8.03;;;5.03;;
19207;SDS011;9737;59.466;18.036;2023-12-04T09:13:35;8.27;;;5.27;;
19207;SDS011;9737;59.466;18.036;2023-12-04T09:16:04;7.77;;;4.93;;
19207;SDS011;9737;59.466;18.036;2023-12-04T09:18:32;8.43;;;5.53;;
19207;SDS011;9737;59.466;18.036;2023-12-04T09:21:01;7.60;;;4.90;;
19207;SDS011;9737;59.466;18.036;2023-12-04T09:23:28;6.67;;;5.23;;
19207;SDS011;9737;59.466;18.036;2023-12-04T09:25:57;7.43;;;4.87;;
19207;SDS011;9737;59.466;18.036;2023-12-04T09:28:24;7.17;;;5.30;;
19207;SDS011;9737;59.466;18.036;2023-12-04T09:30:54;7.87;;;5.23;;
19207;SDS011;9737;59.466;18.036;2023-12-04T09:33:21;7.20;;;5.37;;
19207;SDS011;9737;59.466;18.036;2023-12-04T09:35:49;8.43;;;5.50;;
19207;SDS011;9737;59.466;18.036;2023-12-04T09:38:17;6.67;;;5.00;;
19207;SDS011;9737;59.466;18.036;2023-12-04T09:40:45;8.10;;;5.03;;
19207;SDS011;9737;59.466;18.036;2023-12-04T09:43:13;6.70;;;4.70;;
19207;SDS011;9737;59.466;18.036;2023-12-04T09:45:41;7.60;;;4.87;;
19207;SDS011;9737;59.466;18.036;2023-12-04T09:48:11;9.47;;;5.50;;
19207;SDS011;9737;59.466;18.036;2023-12-04T09:50:39;7.70;;;5.57;;
19207;SDS011;9737;59.466;18.036;2023-12-04T09:53:10;7.63;;;5.50;;
19207;SDS011;9737;59.466;18.036;2023-12-04T09:55:40;6.93;;;5.13;;
19207;SDS011;9737;59.466;18.036;2023-12-04T09:58:07;8.03;;;4.70;;
19207;SDS011;9737;59.466;18.036;2023-12-04T10:00:38;9.50;;;5.07;;
19207;SDS011;9737;59.466;18.036;2023-12-04T10:03:06;13.23;;;5.00;;
19207;SDS011;9737;59.466;18.036;2023-12-04T10:05:36;6.93;;;4.67;;
19207;SDS011;9737;59.466;18.036;2023-12-04T10:08:04;9.70;;;4.30;;
19207;SDS011;9737;59.466;18.036;2023-12-04T10:10:32;6.33;;;4.33;;
19207;SDS011;9737;59.466;18.036;2023-12-04T10:13:01;6.83;;;4.70;;
19207;SDS011;9737;59.466;18.036;2023-12-04T10:15:29;16.13;;;4.85;;
19207;SDS011;9737;59.466;18.036;2023-12-04T10:17:57;6.10;;;4.20;;
19207;SDS011;9737;59.466;18.036;2023-12-04T10:20:26;9.30;;;4.03;;
19207;SDS011;9737;59.466;18.036;2023-12-04T10:22:56;4.20;;;3.73;;
19207;SDS011;9737;59.466;18.036;2023-12-04T10:25:25;5.15;;;3.65;;
19207;SDS011;9737;59.466;18.036;2023-12-04T10:27:55;8.50;;;3.87;;
19207;SDS011;9737;59.466;18.036;2023-12-04T10:30:35;6.53;;;3.72;;
19207;SDS011;9737;59.466;18.036;2023-12-04T10:33:04;8.02;;;3.65;;
19207;SDS011;9737;59.466;18.036;2023-12-04T10:35:34;10.80;;;3.80;;
19207;SDS011;9737;59.466;18.036;2023-12-04T10:38:06;16.98;;;4.03;;
19207;SDS011;9737;59.466;18.036;2023-12-04T10:40:34;6.70;;;3.90;;
19207;SDS011;9737;59.466;18.036;2023-12-04T10:43:10;9.10;;;3.55;;
19207;SDS011;9737;59.466;18.036;2023-12-04T10:45:40;5.07;;;3.90;;
19207;SDS011;9737;59.466;18.036;2023-12-04T10:48:10;12.57;;;3.83;;
19207;SDS011;9737;59.466;18.036;2023-12-04T10:50:39;5.10;;;3.22;;
19207;SDS011;9737;59.466;18.036;2023-12-04T10:53:09;7.15;;;3.55;;
19207;SDS011;9737;59.466;18.036;2023-12-04T10:55:38;7.68;;;3.17;;
19207;SDS011;9737;59.466;18.036;2023-12-04T10:58:07;4.75;;;3.20;;
19207;SDS011;9737;59.466;18.036;2023-12-04T11:00:38;3.40;;;2.53;;
19207;SDS011;9737;59.466;18.036;2023-12-04T11:03:08;6.85;;;3.30;;
19207;SDS011;9737;59.466;18.036;2023-12-04T11:05:37;6.90;;;2.60;;
19207;SDS011;9737;59.466;18.036;2023-12-04T11:08:06;4.80;;;2.78;;
19207;SDS011;9737;59.466;18.036;2023-12-04T11:10:48;4.82;;;3.08;;
19207;SDS011;9737;59.466;18.036;2023-12-04T11:13:23;3.60;;;2.83;;
19207;SDS011;9737;59.466;18.036;2023-12-04T11:15:56;4.15;;;2.92;;
19207;SDS011;9737;59.466;18.036;2023-12-04T11:18:30;4.68;;;3.33;;
19207;SDS011;9737;59.466;18.036;2023-12-04T11:20:59;3.83;;;2.90;;
19207;SDS011;9737;59.466;18.036;2023-12-04T11:23:31;4.75;;;3.50;;
19207;SDS011;9737;59.466;18.036;2023-12-04T11:26:02;3.72;;;2.70;;
19207;SDS011;9737;59.466;18.036;2023-12-04T11:28:50;4.68;;;3.20;;
19207;SDS011;9737;59.466;18.036;2023-12-04T11:31:38;3.85;;;3.20;;
19207;SDS011;9737;59.466;18.036;2023-12-04T11:34:26;8.57;;;4.30;;
19207;SDS011;9737;59.466;18.036;2023-12-04T11:37:13;3.97;;;2.90;;
19207;SDS011;9737;59.466;18.036;2023-12-04T11:40:01;4.20;;;2.92;;
19207;SDS011;9737;59.466;18.036;2023-12-04T11:42:51;3.40;;;3.00;;
19207;SDS011;9737;59.466;18.036;2023-12-04T11:45:39;4.40;;;2.70;;
19207;SDS011;9737;59.466;18.036;2023-12-04T11:48:25;5.28;;;2.72;;
19207;SDS011;9737;59.466;18.036;2023-12-04T11:51:12;5.25;;;3.63;;
19207;SDS011;9737;59.466;18.036;2023-12-04T11:54:21;3.83;;;2.95;;
19207;SDS011;9737;59.466;18.036;2023-12-04T11:57:20;3.90;;;2.80;;
19207;SDS011;9737;59.466;18.036;2023-12-04T12:00:12;7.13;;;3.45;;
19207;SDS011;9737;59.466;18.036;2023-12-04T12:03:02;4.57;;;3.55;;
19207;SDS011;9737;59.466;18.036;2023-12-04T12:06:06;5.50;;;3.58;;
19207;SDS011;9737;59.466;18.036;2023-12-04T12:08:55;6.25;;;3.20;;
19207;SDS011;9737;59.466;18.036;2023-12-04T12:11:42;5.43;;;3.65;;
19207;SDS011;9737;59.466;18.036;2023-12-04T12:14:28;6.20;;;4.15;;
19207;SDS011;9737;59.466;18.036;2023-12-04T12:17:16;9.60;;;4.63;;
19207;SDS011;9737;59.466;18.036;2023-12-04T12:20:02;5.60;;;4.00;;
19207;SDS011;9737;59.466;18.036;2023-12-04T12:22:51;6.87;;;4.40;;
19207;SDS011;9737;59.466;18.036;2023-12-04T12:25:38;6.23;;;4.40;;
19207;SDS011;9737;59.466;18.036;2023-12-04T12:28:24;6.47;;;4.17;;
19207;SDS011;9737;59.466;18.036;2023-12-04T12:31:10;5.83;;;4.43;;
19207;SDS011;9737;59.466;18.036;2023-12-04T12:33:58;5.47;;;4.10;;
19207;SDS011;9737;59.466;18.036;2023-12-04T12:36:46;8.80;;;5.50;;
19207;SDS011;9737;59.466;18.036;2023-12-04T12:39:33;7.67;;;5.17;;
19207;SDS011;9737;59.466;18.036;2023-12-04T12:42:20;6.87;;;4.90;;
19207;SDS011;9737;59.466;18.036;2023-12-04T12:45:08;8.60;;;4.93;;
19207;SDS011;9737;59.466;18.036;2023-12-04T12:47:57;7.97;;;4.80;;
19207;SDS011;9737;59.466;18.036;2023-12-04T12:50:45;5.63;;;4.23;;
19207;SDS011;9737;59.466;18.036;2023-12-04T12:53:32;6.77;;;4.73;;
19207;SDS011;9737;59.466;18.036;2023-12-04T12:56:19;9.03;;;4.80;;
19207;SDS011;9737;59.466;18.036;2023-12-04T12:59:06;6.97;;;4.83;;
19207;SDS011;9737;59.466;18.036;2023-12-04T13:01:53;6.17;;;4.40;;
19207;SDS011;9737;59.466;18.036;2023-12-04T13:04:43;6.07;;;4.63;;
19207;SDS011;9737;59.466;18.036;2023-12-04T13:07:31;6.13;;;4.57;;
19207;SDS011;9737;59.466;18.036;2023-12-04T13:10:18;5.43;;;4.30;;
19207;SDS011;9737;59.466;18.036;2023-12-04T13:13:04;6.17;;;4.67;;
19207;SDS011;9737;59.466;18.036;2023-12-04T13:15:56;5.50;;;4.37;;
19207;SDS011;9737;59.466;18.036;2023-12-04T13:18:42;6.43;;;4.63;;
19207;SDS011;9737;59.466;18.036;2023-12-04T13:21:29;7.40;;;4.47;;
19207;SDS011;9737;59.466;18.036;2023-12-04T13:24:17;5.83;;;4.47;;
19207;SDS011;9737;59.466;18.036;2023-12-04T13:27:03;5.33;;;4.67;;
19207;SDS011;9737;59.466;18.036;2023-12-04T13:29:50;6.23;;;4.60;;
19207;SDS011;9737;59.466;18.036;2023-12-04T13:32:36;8.43;;;4.80;;
19207;SDS011;9737;59.466;18.036;2023-12-04T13:35:23;5.83;;;4.60;;
19207;SDS011;9737;59.466;18.036;2023-12-04T13:38:10;6.03;;;4.33;;
19207;SDS011;9737;59.466;18.036;2023-12-04T13:41:08;5.40;;;4.07;;
19207;SDS011;9737;59.466;18.036;2023-12-04T13:44:19;4.67;;;3.70;;
19207;SDS011;9737;59.466;18.036;2023-12-04T13:47:05;6.00;;;4.33;;
19207;SDS011;9737;59.466;18.036;2023-12-04T13:49:52;5.20;;;4.30;;
19207;SDS011;9737;59.466;18.036;2023-12-04T13:52:40;8.07;;;4.67;;
19207;SDS011;9737;59.466;18.036;2023-12-04T13:55:27;8.33;;;4.67;;
19207;SDS011;9737;59.466;18.036;2023-12-04T13:58:35;6.87;;;4.43;;
19207;SDS011;9737;59.466;18.036;2023-12-04T14:01:24;5.27;;;4.13;;
19207;SDS011;9737;59.466;18.036;2023-12-04T14:04:13;6.50;;;4.70;;
19207;SDS011;9737;59.466;18.036;2023-12-04T14:07:01;6.27;;;4.80;;
19207;SDS011;9737;59.466;18.036;2023-12-04T14:09:50;8.50;;;5.57;;
19207;SDS011;9737;59.466;18.036;2023-12-04T14:12:36;6.10;;;4.90;;
19207;SDS011;9737;59.466;18.036;2023-12-04T14:15:24;7.03;;;4.67;;
19207;SDS011;9737;59.466;18.036;2023-12-04T14:18:10;7.27;;;4.67;;
19207;SDS011;9737;59.466;18.036;2023-12-04T14:20:56;6.63;;;4.30;;
19207;SDS011;9737;59.466;18.036;2023-12-04T14:23:43;6.10;;;4.23;;
19207;SDS011;9737;59.466;18.036;2023-12-04T14:26:30;5.73;;;4.80;;
19207;SDS011;9737;59.466;18.036;2023-12-04T14:29:16;6.07;;;4.87;;
19207;SDS011;9737;59.466;18.036;2023-12-04T14:32:04;6.07;;;5.10;;
19207;SDS011;9737;59.466;18.036;2023-12-04T14:34:51;11.43;;;6.93;;
19207;SDS011;9737;59.466;18.036;2023-12-04T14:37:38;12.83;;;7.43;;
19207;SDS011;9737;59.466;18.036;2023-12-04T14:40:24;19.37;;;9.27;;
19207;SDS011;9737;59.466;18.036;2023-12-04T14:43:11;15.13;;;7.77;;
19207;SDS011;9737;59.466;18.036;2023-12-04T14:45:57;15.83;;;8.40;;
19207;SDS011;9737;59.466;18.036;2023-12-04T14:48:46;13.53;;;8.57;;
19207;SDS011;9737;59.466;18.036;2023-12-04T14:51:32;22.43;;;13.90;;
19207;SDS011;9737;59.466;18.036;2023-12-04T14:54:19;12.87;;;8.20;;
19207;SDS011;9737;59.466;18.036;2023-12-04T14:57:18;9.13;;;6.20;;
19207;SDS011;9737;59.466;18.036;2023-12-04T15:00:34;11.07;;;6.77;;
19207;SDS011;9737;59.466;18.036;2023-12-04T15:03:34;12.17;;;7.67;;
19207;SDS011;9737;59.466;18.036;2023-12-04T15:06:38;7.80;;;5.10;;
19207;SDS011;9737;59.466;18.036;2023-12-04T15:09:48;11.90;;;5.20;;
19207;SDS011;9737;59.466;18.036;2023-12-04T15:12:52;7.63;;;5.17;;
19207;SDS011;9737;59.466;18.036;2023-12-04T15:16:07;7.93;;;4.93;;
19207;SDS011;9737;59.466;18.036;2023-12-04T15:19:13;9.30;;;5.60;;
19207;SDS011;9737;59.466;18.036;2023-12-04T15:22:17;8.07;;;5.70;;